Time;durP1;ratioP1;P1;durP2;ratioP2;P2;SDS_P1;SDS_P2;PMS_P1;PMS_P2;Temp;Humidity;BMP_temperature;BMP_pressure;BME280_temperature;BME280_humidity;BME280_pressure;Samples;Min_cycle;Max_cycle;Signal;HPM_P1;HPM_P2
2021/10/04 00:01:35;;;;;;;22.48;20.00;;;20.40;93.80;;;;;;5032798;28;20529;-60
2021/10/04 00:04:00;;;;;;;27.15;20.42;;;20.50;93.80;;;;;;5031814;28;20075;-60
2021/10/04 00:06:26;;;;;;;22.65;20.05;;;20.40;93.90;;;;;;5034336;28;20117;-60
2021/10/04 00:08:51;;;;;;;23.40;19.30;;;20.40;93.90;;;;;;5032781;28;20037;-60
2021/10/04 00:11:17;;;;;;;24.58;19.35;;;20.40;93.80;;;;;;5033513;28;20052;-60
2021/10/04 00:13:43;;;;;;;25.65;19.45;;;20.40;93.80;;;;;;5036354;28;20025;-60
2021/10/04 00:16:08;;;;;;;23.48;20.15;;;20.40;93.90;;;;;;5033938;28;20163;-60
2021/10/04 00:18:34;;;;;;;21.25;18.73;;;20.40;94.00;;;;;;5032590;28;20025;-60
2021/10/04 00:21:00;;;;;;;22.42;18.73;;;20.40;94.10;;;;;;5033555;28;20036;-61
2021/10/04 00:23:25;;;;;;;21.38;18.48;;;20.30;94.00;;;;;;5032281;28;20487;-60
2021/10/04 00:25:51;;;;;;;23.20;18.85;;;20.30;94.00;;;;;;5033455;28;20112;-61
2021/10/04 00:28:17;;;;;;;21.10;17.67;;;20.30;94.10;;;;;;5032279;28;20029;-60
2021/10/04 00:30:42;;;;;;;24.15;19.58;;;20.30;94.10;;;;;;5033617;28;20086;-60
2021/10/04 00:33:08;;;;;;;24.67;19.40;;;20.30;94.00;;;;;;5040699;28;20052;-60
2021/10/04 00:35:34;;;;;;;23.67;18.00;;;20.30;94.00;;;;;;5033229;28;20068;-60
2021/10/04 00:37:59;;;;;;;23.90;18.48;;;20.40;94.00;;;;;;5033161;28;20091;-60
2021/10/04 00:40:30;;;;;;;21.20;18.65;;;20.30;94.00;;;;;;5033593;28;20021;-60
2021/10/04 00:42:57;;;;;;;21.17;18.52;;;20.20;94.10;;;;;;5036627;28;20059;-60
2021/10/04 00:45:23;;;;;;;22.48;18.38;;;20.30;94.10;;;;;;5035615;28;20036;-60
2021/10/04 00:47:49;;;;;;;21.10;17.70;;;20.30;94.00;;;;;;5032435;28;20029;-60
2021/10/04 00:50:17;;;;;;;23.02;16.35;;;20.40;94.00;;;;;;5032716;28;20099;-60
2021/10/04 00:52:42;;;;;;;22.02;17.00;;;20.30;94.00;;;;;;5034052;28;22147;-61
2021/10/04 00:55:09;;;;;;;20.98;17.35;;;20.30;94.10;;;;;;5037660;28;20043;-60
2021/10/04 00:57:36;;;;;;;23.40;18.55;;;20.30;94.00;;;;;;5030250;28;20369;-60
2021/10/04 01:00:04;;;;;;;21.98;17.88;;;20.20;94.00;;;;;;5032144;28;20370;-61
2021/10/04 01:02:30;;;;;;;22.42;18.08;;;20.30;94.20;;;;;;5029667;28;20069;-60
2021/10/04 01:04:56;;;;;;;22.38;17.13;;;20.20;94.30;;;;;;5039014;28;20118;-60
2021/10/04 01:07:21;;;;;;;21.10;18.30;;;20.20;94.20;;;;;;5033228;28;20030;-60
2021/10/04 01:09:47;;;;;;;23.10;17.98;;;20.20;94.20;;;;;;5033664;28;20029;-60
2021/10/04 01:12:12;;;;;;;19.95;16.35;;;20.10;94.30;;;;;;5032711;28;20478;-61
2021/10/04 01:14:38;;;;;;;22.52;17.77;;;20.10;94.30;;;;;;5031755;28;20109;-60
2021/10/04 01:17:04;;;;;;;20.85;18.17;;;20.10;94.30;;;;;;5032954;28;20439;-60
2021/10/04 01:19:29;;;;;;;23.20;18.63;;;20.10;94.30;;;;;;5047363;28;20036;-60
2021/10/04 01:21:55;;;;;;;22.40;17.73;;;20.20;94.50;;;;;;5035102;28;20109;-60
2021/10/04 01:24:21;;;;;;;22.30;18.00;;;20.20;94.40;;;;;;5031625;28;20026;-61
2021/10/04 01:26:47;;;;;;;25.00;17.70;;;20.20;94.30;;;;;;5032816;28;20056;-61
2021/10/04 01:29:13;;;;;;;20.25;18.08;;;20.30;94.20;;;;;;5036127;28;20434;-61
2021/10/04 01:31:39;;;;;;;23.58;18.80;;;20.30;94.10;;;;;;5031677;28;20112;-60
2021/10/04 01:34:05;;;;;;;22.73;18.00;;;20.10;94.50;;;;;;5031568;28;20168;-60
2021/10/04 01:36:31;;;;;;;23.80;19.65;;;20.20;94.50;;;;;;5032524;28;20030;-60
2021/10/04 01:38:58;;;;;;;22.20;18.13;;;20.20;94.70;;;;;;5041909;28;20530;-60
2021/10/04 01:41:24;;;;;;;27.15;19.05;;;20.10;94.70;;;;;;5040294;28;20116;-60
2021/10/04 01:43:52;;;;;;;25.45;18.88;;;20.20;94.80;;;;;;5039062;28;20510;-60
2021/10/04 01:46:19;;;;;;;24.48;19.17;;;20.20;94.90;;;;;;5032918;28;20029;-60
2021/10/04 01:48:45;;;;;;;24.33;20.08;;;20.20;94.70;;;;;;5038987;28;20468;-60
2021/10/04 01:51:11;;;;;;;27.73;20.17;;;20.10;94.80;;;;;;5042323;28;20037;-60
2021/10/04 01:53:36;;;;;;;28.40;21.73;;;20.10;94.80;;;;;;5032001;28;20072;-61
2021/10/04 01:56:02;;;;;;;25.33;20.02;;;20.10;94.90;;;;;;5031916;28;20034;-60
2021/10/04 01:58:29;;;;;;;25.27;20.42;;;20.20;94.90;;;;;;5031212;28;20033;-61
2021/10/04 02:00:57;;;;;;;27.75;20.42;;;20.20;94.70;;;;;;5031806;28;20049;-61
2021/10/04 02:03:22;;;;;;;27.65;19.98;;;20.20;94.80;;;;;;5038700;28;20510;-60
2021/10/04 02:05:48;;;;;;;26.83;19.08;;;20.10;95.00;;;;;;5030925;28;20108;-61
2021/10/04 02:08:13;;;;;;;25.90;19.98;;;20.20;95.10;;;;;;5031315;28;20036;-61
2021/10/04 02:10:41;;;;;;;30.27;21.00;;;20.00;95.10;;;;;;5032549;28;20032;-60
2021/10/04 02:13:09;;;;;;;24.40;19.95;;;20.00;95.50;;;;;;5036363;28;20029;-60
2021/10/04 02:15:36;;;;;;;27.52;20.33;;;20.00;95.40;;;;;;5044591;28;20034;-60
2021/10/04 02:18:02;;;;;;;28.40;20.38;;;20.00;95.40;;;;;;5035857;28;20482;-60
2021/10/04 02:20:32;;;;;;;23.63;19.92;;;20.10;95.40;;;;;;5056385;28;20463;-60
2021/10/04 02:23:07;;;;;;;25.50;20.05;;;20.10;95.50;;;;;;5035988;28;20060;-60
2021/10/04 02:25:38;;;;;;;23.20;19.10;;;20.00;95.50;;;;;;5035729;28;20053;-60
2021/10/04 02:28:05;;;;;;;26.45;21.42;;;20.00;95.70;;;;;;5035144;28;20028;-60
2021/10/04 02:30:32;;;;;;;27.40;20.55;;;20.00;95.60;;;;;;5034115;28;20513;-61
2021/10/04 02:32:58;;;;;;;27.58;19.50;;;20.10;95.60;;;;;;5035139;28;20029;-60
2021/10/04 02:35:24;;;;;;;26.42;20.58;;;20.00;95.80;;;;;;5045897;28;20540;-60
2021/10/04 02:37:51;;;;;;;29.60;20.35;;;20.00;95.70;;;;;;5036019;28;20033;-61
2021/10/04 02:40:18;;;;;;;26.83;20.65;;;20.10;95.80;;;;;;5053744;28;20056;-61
2021/10/04 02:42:44;;;;;;;24.98;19.98;;;20.10;95.70;;;;;;5024403;28;20391;-60
2021/10/04 02:45:13;;;;;;;25.85;20.63;;;20.00;96.00;;;;;;5032613;28;20021;-60
2021/10/04 02:47:38;;;;;;;23.50;19.00;;;19.90;96.00;;;;;;5035591;28;20097;-61
2021/10/04 02:50:07;;;;;;;27.15;20.40;;;20.00;95.90;;;;;;5040386;28;20113;-60
2021/10/04 02:52:33;;;;;;;22.88;18.60;;;20.00;95.90;;;;;;5035148;28;20064;-60
2021/10/04 02:54:59;;;;;;;25.65;20.88;;;20.00;95.70;;;;;;5033990;28;20060;-60
2021/10/04 02:57:24;;;;;;;25.15;19.85;;;20.00;95.70;;;;;;5035747;28;20032;-60
2021/10/04 02:59:50;;;;;;;25.77;19.20;;;20.10;95.80;;;;;;5036539;28;20482;-60
2021/10/04 03:02:16;;;;;;;26.98;20.15;;;20.10;95.70;;;;;;5034226;28;20376;-60
2021/10/04 03:04:41;;;;;;;23.13;19.40;;;20.10;95.70;;;;;;5033873;28;20087;-61
2021/10/04 03:07:07;;;;;;;24.40;20.25;;;20.10;95.90;;;;;;5035094;28;20383;-61
2021/10/04 03:09:32;;;;;;;23.98;18.77;;;20.10;96.00;;;;;;5034229;28;20117;-61
2021/10/04 03:11:58;;;;;;;27.88;20.52;;;20.00;96.50;;;;;;5034649;28;20025;-61
2021/10/04 03:14:24;;;;;;;29.20;20.65;;;20.10;96.70;;;;;;5034097;28;20025;-61
2021/10/04 03:16:50;;;;;;;26.27;19.95;;;20.10;96.70;;;;;;5034430;28;20049;-61
2021/10/04 03:19:16;;;;;;;28.00;20.48;;;19.90;97.10;;;;;;5042742;28;20482;-61
2021/10/04 03:21:41;;;;;;;28.75;21.20;;;20.00;97.10;;;;;;5045215;28;20021;-61
2021/10/04 03:24:07;;;;;;;27.08;20.10;;;19.90;97.10;;;;;;5031764;28;20384;-61
2021/10/04 03:26:33;;;;;;;26.58;20.83;;;19.90;97.10;;;;;;5034740;28;20033;-61
2021/10/04 03:28:58;;;;;;;28.20;20.92;;;19.90;97.30;;;;;;5037880;28;20073;-61
2021/10/04 03:31:24;;;;;;;27.35;20.50;;;19.90;97.20;;;;;;5034616;28;20036;-61
2021/10/04 03:33:49;;;;;;;29.20;20.92;;;19.90;97.20;;;;;;5038557;28;20023;-61
2021/10/04 03:36:15;;;;;;;25.45;21.13;;;19.90;97.30;;;;;;5036475;28;20039;-61
2021/10/04 03:38:41;;;;;;;24.85;19.77;;;19.90;97.30;;;;;;5035897;28;20021;-61
2021/10/04 03:41:06;;;;;;;29.80;21.77;;;19.90;97.30;;;;;;5047507;28;20025;-61
2021/10/04 03:43:32;;;;;;;24.20;19.95;;;19.90;97.40;;;;;;5032819;28;20072;-61
2021/10/04 03:45:57;;;;;;;25.63;19.48;;;19.90;97.50;;;;;;5033769;28;20412;-61
2021/10/04 03:48:23;;;;;;;31.90;22.17;;;19.80;97.50;;;;;;5032905;28;20025;-61
2021/10/04 03:50:49;;;;;;;30.80;22.17;;;19.80;97.70;;;;;;5033877;28;20494;-61
2021/10/04 03:53:14;;;;;;;28.25;21.52;;;19.80;97.50;;;;;;5033825;28;20025;-61
2021/10/04 03:55:40;;;;;;;29.60;22.17;;;19.80;97.90;;;;;;5043384;28;20076;-61
2021/10/04 03:58:06;;;;;;;27.95;22.60;;;19.80;98.20;;;;;;5033050;28;20021;-61
2021/10/04 04:00:31;;;;;;;29.45;22.27;;;19.90;98.40;;;;;;5030289;28;20511;-61
2021/10/04 04:02:57;;;;;;;32.47;23.70;;;19.90;98.80;;;;;;5032438;28;20068;-61
2021/10/04 04:05:23;;;;;;;32.35;23.63;;;19.90;99.20;;;;;;5032379;28;20030;-61
2021/10/04 04:07:48;;;;;;;27.95;22.25;;;19.90;99.20;;;;;;5032385;28;20021;-61
2021/10/04 04:10:16;;;;;;;29.02;23.45;;;19.90;99.20;;;;;;5050870;28;20033;-61
2021/10/04 04:12:42;;;;;;;31.85;23.92;;;19.90;99.50;;;;;;5054028;28;20020;-61
2021/10/04 04:15:08;;;;;;;33.38;23.65;;;19.80;99.50;;;;;;5034775;28;20026;-61
2021/10/04 04:17:34;;;;;;;27.67;22.73;;;19.80;99.90;;;;;;5033571;28;20357;-61
2021/10/04 04:20:00;;;;;;;28.40;24.20;;;19.70;99.90;;;;;;5033173;28;20030;-61
2021/10/04 04:22:26;;;;;;;31.27;23.92;;;19.70;99.90;;;;;;5033871;28;20026;-61
2021/10/04 04:24:51;;;;;;;36.05;24.00;;;19.70;99.90;;;;;;5035201;28;20025;-61
2021/10/04 04:27:17;;;;;;;31.23;23.38;;;19.70;99.90;;;;;;5041143;28;20036;-61
2021/10/04 04:29:43;;;;;;;31.40;24.30;;;19.70;99.90;;;;;;5045750;28;20025;-61
2021/10/04 04:32:10;;;;;;;30.40;23.70;;;19.70;99.90;;;;;;5053436;28;20063;-61
2021/10/04 04:34:37;;;;;;;27.95;23.80;;;19.70;99.90;;;;;;5047826;28;20033;-61
2021/10/04 04:37:04;;;;;;;35.15;25.80;;;19.70;99.90;;;;;;5033030;28;20525;-61
2021/10/04 04:39:31;;;;;;;31.08;24.85;;;19.60;99.90;;;;;;5042709;28;20068;-61
2021/10/04 04:41:56;;;;;;;32.45;24.35;;;19.60;99.90;;;;;;5053467;28;20021;-61
2021/10/04 04:44:22;;;;;;;29.95;24.23;;;19.70;99.90;;;;;;5045417;28;20086;-61
2021/10/04 04:46:49;;;;;;;29.73;23.75;;;19.70;99.90;;;;;;5050068;28;20132;-60
2021/10/04 04:49:16;;;;;;;33.30;23.25;;;19.70;99.90;;;;;;5039415;28;20436;-60
2021/10/04 04:51:42;;;;;;;31.40;23.90;;;19.70;99.90;;;;;;5052974;28;20478;-60
2021/10/04 04:54:08;;;;;;;30.38;23.58;;;19.70;99.90;;;;;;5043607;28;20105;-61
2021/10/04 04:56:34;;;;;;;32.17;24.73;;;19.70;99.90;;;;;;5040743;28;20372;-61
2021/10/04 04:59:00;;;;;;;32.58;24.85;;;19.70;99.90;;;;;;5032674;28;20033;-61
2021/10/04 05:01:26;;;;;;;30.45;23.77;;;19.70;99.90;;;;;;5039344;28;20370;-61
2021/10/04 05:03:52;;;;;;;33.15;24.75;;;19.60;99.90;;;;;;5038283;28;20029;-61
2021/10/04 05:06:18;;;;;;;31.88;24.52;;;19.70;99.90;;;;;;5032675;28;20124;-61
2021/10/04 05:08:44;;;;;;;33.35;24.95;;;19.60;99.90;;;;;;5035538;28;20147;-61
2021/10/04 05:11:10;;;;;;;34.83;24.02;;;19.70;99.90;;;;;;5052858;28;20439;-61
2021/10/04 05:13:36;;;;;;;31.02;25.63;;;19.70;99.90;;;;;;5034100;28;20033;-61
2021/10/04 05:16:01;;;;;;;33.20;24.58;;;19.70;99.90;;;;;;5032813;28;20053;-61
2021/10/04 05:18:27;;;;;;;32.13;23.08;;;19.70;99.90;;;;;;5031731;28;20044;-61
2021/10/04 05:20:53;;;;;;;35.97;25.90;;;19.70;99.90;;;;;;5032707;28;20144;-61
2021/10/04 05:23:19;;;;;;;32.78;25.33;;;19.60;99.90;;;;;;5031517;28;20470;-61
2021/10/04 05:25:44;;;;;;;33.20;24.42;;;19.70;99.90;;;;;;5031534;28;20053;-61
2021/10/04 05:28:10;;;;;;;33.25;22.88;;;19.70;99.90;;;;;;5032829;28;20041;-60
2021/10/04 05:30:36;;;;;;;30.35;23.05;;;19.60;99.90;;;;;;5031420;28;20116;-60
2021/10/04 05:33:02;;;;;;;33.40;23.15;;;19.70;99.90;;;;;;5032567;28;20029;-60
2021/10/04 05:35:28;;;;;;;32.95;24.17;;;19.70;99.90;;;;;;5048453;28;20088;-61
2021/10/04 05:37:54;;;;;;;29.77;23.70;;;19.70;99.90;;;;;;5052984;28;20029;-60
2021/10/04 05:40:20;;;;;;;33.97;24.48;;;19.60;99.90;;;;;;5035212;28;20041;-60
2021/10/04 05:42:46;;;;;;;31.02;23.65;;;19.60;99.90;;;;;;5031848;28;20049;-60
2021/10/04 05:45:14;;;;;;;31.08;22.92;;;19.70;99.90;;;;;;5043861;28;20033;-60
2021/10/04 05:47:41;;;;;;;33.15;24.20;;;19.70;99.90;;;;;;5034685;28;20033;-60
2021/10/04 05:50:08;;;;;;;31.48;22.95;;;19.70;99.90;;;;;;5035338;28;20112;-60
2021/10/04 05:52:33;;;;;;;29.40;22.58;;;19.70;99.90;;;;;;5035769;28;20034;-59
2021/10/04 05:54:59;;;;;;;26.20;22.65;;;19.70;99.90;;;;;;5037135;28;20033;-60
2021/10/04 05:57:25;;;;;;;27.27;22.17;;;19.70;99.90;;;;;;5036408;28;20109;-60
2021/10/04 05:59:51;;;;;;;33.13;23.58;;;19.70;99.90;;;;;;5045646;28;20079;-60
2021/10/04 06:02:16;;;;;;;29.75;22.73;;;19.80;99.90;;;;;;5034885;28;20061;-59
2021/10/04 06:04:42;;;;;;;27.42;23.42;;;19.70;99.90;;;;;;5029563;28;20033;-60
2021/10/04 06:07:08;;;;;;;32.45;23.05;;;19.80;99.90;;;;;;5036219;28;20522;-59
2021/10/04 06:09:33;;;;;;;32.70;23.83;;;19.70;99.90;;;;;;5050110;28;20033;-59
2021/10/04 06:11:59;;;;;;;33.42;22.27;;;19.70;99.90;;;;;;5036297;28;20037;-60
2021/10/04 06:14:24;;;;;;;28.05;22.20;;;19.60;99.90;;;;;;5035433;28;20064;-60
2021/10/04 06:16:50;;;;;;;33.42;23.25;;;19.60;99.90;;;;;;5035868;28;20047;-61
2021/10/04 06:19:16;;;;;;;30.45;21.85;;;19.60;99.90;;;;;;5038858;28;20025;-61
2021/10/04 06:21:41;;;;;;;29.65;23.05;;;19.70;99.90;;;;;;5039741;28;20064;-60
2021/10/04 06:24:07;;;;;;;32.85;22.30;;;19.60;99.90;;;;;;5038228;28;20037;-60
2021/10/04 06:26:33;;;;;;;34.38;23.45;;;19.60;99.90;;;;;;5040906;28;20026;-60
2021/10/04 06:28:58;;;;;;;32.15;22.80;;;19.60;99.90;;;;;;5028740;28;20364;-60
2021/10/04 06:31:26;;;;;;;28.85;22.70;;;19.60;99.90;;;;;;5036024;28;20025;-60
2021/10/04 06:33:52;;;;;;;27.80;21.88;;;19.70;99.90;;;;;;5032145;28;20383;-60
2021/10/04 06:36:17;;;;;;;32.70;22.17;;;19.60;99.90;;;;;;5042005;28;20018;-60
2021/10/04 06:38:44;;;;;;;30.67;22.20;;;19.50;99.90;;;;;;5034779;28;20467;-60
2021/10/04 06:41:10;;;;;;;29.17;21.35;;;19.60;99.90;;;;;;5048488;28;20041;-60
2021/10/04 06:43:35;;;;;;;31.42;23.40;;;19.60;99.90;;;;;;5035618;28;20043;-60
2021/10/04 06:46:01;;;;;;;28.92;23.35;;;19.70;99.90;;;;;;5033573;28;20102;-60
2021/10/04 06:48:27;;;;;;;31.33;22.38;;;19.50;99.90;;;;;;5044496;28;20028;-60
2021/10/04 06:50:53;;;;;;;31.73;23.08;;;19.50;99.90;;;;;;5036695;28;20033;-59
2021/10/04 06:53:19;;;;;;;31.63;22.55;;;19.50;99.90;;;;;;5034423;28;20069;-59
2021/10/04 06:55:45;;;;;;;36.33;23.60;;;19.40;99.90;;;;;;5034353;28;20142;-59
2021/10/04 06:58:11;;;;;;;39.05;24.40;;;19.30;99.90;;;;;;5034244;28;20061;-59
2021/10/04 07:00:37;;;;;;;31.90;23.65;;;25.40;99.90;;;;;;5033378;28;20049;-59
2021/10/04 07:03:03;;;;;;;35.33;24.90;;;24.30;99.90;;;;;;5035609;28;20051;-59
2021/10/04 07:05:28;;;;;;;33.97;24.23;;;24.20;99.90;;;;;;5046756;28;20028;-59
2021/10/04 07:07:56;;;;;;;36.80;25.25;;;23.40;99.90;;;;;;5055103;28;20040;-59
2021/10/04 07:10:22;;;;;;;31.92;23.08;;;23.10;99.90;;;;;;5040991;28;20018;-60
2021/10/04 07:12:48;;;;;;;40.28;26.30;;;22.90;99.90;;;;;;5052455;28;20029;-59
2021/10/04 07:15:14;;;;;;;37.83;25.50;;;23.20;99.90;;;;;;5042322;28;20037;-59
2021/10/04 07:17:40;;;;;;;45.72;26.40;;;23.00;99.90;;;;;;5035008;28;20508;-59
2021/10/04 07:20:06;;;;;;;44.15;26.08;;;23.10;99.90;;;;;;5034201;28;20471;-57
2021/10/04 07:22:31;;;;;;;42.00;25.98;;;23.10;99.90;;;;;;5035107;28;20036;-58
2021/10/04 07:24:57;;;;;;;34.00;24.63;;;22.90;99.90;;;;;;5041874;28;20394;-58
2021/10/04 07:27:23;;;;;;;37.60;27.88;;;22.60;99.90;;;;;;5054756;28;20025;-59
2021/10/04 07:29:48;;;;;;;46.75;26.90;;;22.20;99.90;;;;;;5052733;28;20033;-58
2021/10/04 07:32:14;;;;;;;37.35;25.83;;;22.20;99.90;;;;;;5053333;28;20032;-59
2021/10/04 07:34:40;;;;;;;37.85;24.77;;;23.20;99.90;;;;;;5052562;28;20025;-59
2021/10/04 07:37:05;;;;;;;35.60;25.80;;;23.70;99.90;;;;;;5054446;28;20029;-59
2021/10/04 07:39:31;;;;;;;40.70;26.10;;;23.50;99.90;;;;;;5051424;28;20047;-59
2021/10/04 07:41:57;;;;;;;37.80;25.85;;;22.70;99.90;;;;;;5034036;28;20091;-58
2021/10/04 07:44:24;;;;;;;42.13;26.98;;;23.10;99.90;;;;;;5033444;28;20045;-60
2021/10/04 07:46:51;;;;;;;37.72;26.02;;;22.90;99.90;;;;;;5034353;28;20467;-57
2021/10/04 07:49:17;;;;;;;43.42;26.67;;;22.40;99.90;;;;;;5035036;28;20026;-59
2021/10/04 07:51:43;;;;;;;41.90;27.70;;;22.50;99.90;;;;;;5054148;28;20036;-57
2021/10/04 07:54:09;;;;;;;50.28;29.73;;;21.90;99.90;;;;;;5051335;28;20115;-57
2021/10/04 07:56:38;;;;;;;45.33;29.13;;;22.10;99.90;;;;;;5033989;28;20456;-54
2021/10/04 07:59:06;;;;;;;46.25;27.77;;;22.10;99.90;;;;;;5031305;28;20080;-58
2021/10/04 08:01:32;;;;;;;45.97;28.85;;;21.70;99.90;;;;;;5013424;28;20455;-58
2021/10/04 08:03:58;;;;;;;39.03;27.65;;;21.70;99.90;;;;;;5013851;28;20045;-56
2021/10/04 08:06:26;;;;;;;40.28;27.85;;;21.80;99.90;;;;;;5032564;28;20022;-57
2021/10/04 08:08:52;;;;;;;45.22;27.17;;;22.00;99.90;;;;;;5032496;28;20526;-57
2021/10/04 08:11:18;;;;;;;45.67;27.35;;;21.80;99.90;;;;;;5050003;28;20039;-56
2021/10/04 08:13:45;;;;;;;39.42;26.08;;;21.90;99.90;;;;;;5053960;28;20404;-58
2021/10/04 08:16:11;;;;;;;47.75;28.33;;;21.50;99.90;;;;;;5035363;28;20037;-59
2021/10/04 08:18:37;;;;;;;40.47;28.52;;;21.50;99.90;;;;;;5032343;28;20029;-58
2021/10/04 08:21:02;;;;;;;48.08;28.38;;;22.00;99.90;;;;;;5030920;28;20040;-57
2021/10/04 08:23:28;;;;;;;43.30;26.98;;;21.50;99.90;;;;;;5030099;28;20042;-57
2021/10/04 08:25:55;;;;;;;63.25;30.23;;;21.50;99.90;;;;;;5031857;28;20443;-57
2021/10/04 08:28:20;;;;;;;38.10;25.88;;;21.90;99.90;;;;;;5033690;28;20030;-59
2021/10/04 08:30:46;;;;;;;39.28;26.90;;;21.90;99.90;;;;;;5043582;28;20036;-58
2021/10/04 08:33:12;;;;;;;38.05;25.90;;;22.20;99.90;;;;;;5052204;28;20119;-59
2021/10/04 08:35:38;;;;;;;35.45;23.67;;;22.10;99.90;;;;;;5051499;28;20039;-60
2021/10/04 08:38:03;;;;;;;34.65;25.35;;;21.90;99.90;;;;;;5053784;28;20462;-57
2021/10/04 08:40:29;;;;;;;32.72;23.05;;;21.70;99.90;;;;;;5045129;28;20032;-59
2021/10/04 08:42:55;;;;;;;40.83;24.98;;;22.00;99.90;;;;;;5054075;28;20037;-58
2021/10/04 08:45:28;;;;;;;39.15;26.23;;;21.90;99.90;;;;;;5042998;28;20369;-57
2021/10/04 08:47:59;;;;;;;33.83;23.30;;;21.70;99.90;;;;;;5033563;28;20029;-56
2021/10/04 08:50:28;;;;;;;35.65;24.73;;;21.90;99.90;;;;;;5032541;28;20100;-57
2021/10/04 08:52:55;;;;;;;34.03;24.30;;;22.10;99.90;;;;;;5033311;28;20391;-58
2021/10/04 08:55:21;;;;;;;33.92;25.58;;;21.80;99.90;;;;;;5040289;28;20051;-57
2021/10/04 08:57:48;;;;;;;39.45;26.40;;;22.00;99.90;;;;;;5053216;28;20017;-58
2021/10/04 09:00:14;;;;;;;33.05;25.33;;;22.10;99.90;;;;;;5044625;28;20045;-57
2021/10/04 09:02:39;;;;;;;35.13;23.50;;;22.10;99.90;;;;;;5050514;28;20086;-58
2021/10/04 09:05:14;;;;;;;38.42;24.75;;;22.10;99.90;;;;;;5051271;28;20033;-59
2021/10/04 09:07:45;;;;;;;34.28;24.63;;;22.30;99.90;;;;;;5048618;28;20040;-59
2021/10/04 09:10:13;;;;;;;33.63;24.48;;;22.40;99.90;;;;;;5051099;28;20352;-59
2021/10/04 09:12:44;;;;;;;35.42;23.33;;;22.70;99.90;;;;;;5051658;28;20478;-59
2021/10/04 09:15:29;;;;;;;38.90;22.67;;;22.70;99.90;;;;;;5045399;28;20064;-58
2021/10/04 09:17:56;;;;;;;29.63;23.10;;;22.70;99.90;;;;;;5033142;28;20017;-59
2021/10/04 09:20:23;;;;;;;33.50;23.63;;;23.00;99.90;;;;;;5039032;28;20192;-59
2021/10/04 09:22:49;;;;;;;34.20;25.00;;;23.20;99.90;;;;;;5052035;28;20060;-59
2021/10/04 09:25:15;;;;;;;35.58;23.25;;;23.50;99.90;;;;;;5051039;28;20102;-59
2021/10/04 09:27:44;;;;;;;29.85;24.55;;;23.60;99.90;;;;;;5052766;28;20083;-59
2021/10/04 09:30:16;;;;;;;30.13;22.20;;;23.40;99.90;;;;;;5045705;28;20057;-62
2021/10/04 09:32:51;;;;;;;28.83;22.40;;;23.70;99.90;;;;;;5032713;28;20026;-59
2021/10/04 09:35:16;;;;;;;32.45;25.08;;;23.60;99.90;;;;;;5032753;28;20034;-59
2021/10/04 09:37:44;;;;;;;33.05;26.35;;;23.70;99.90;;;;;;5052580;28;20032;-59
2021/10/04 09:40:32;;;;;;;35.72;25.73;;;23.90;99.90;;;;;;5046499;28;20059;-60
2021/10/04 09:42:58;;;;;;;39.85;25.70;;;24.00;99.90;;;;;;5052774;28;20409;-60
2021/10/04 09:45:25;;;;;;;38.90;26.67;;;23.60;99.90;;;;;;5050530;28;20035;-60
2021/10/04 09:47:52;;;;;;;36.22;27.13;;;24.20;99.90;;;;;;5052702;28;20025;-59
2021/10/04 09:50:27;;;;;;;34.50;25.00;;;24.40;99.90;;;;;;5045312;28;20032;-59
2021/10/04 09:53:01;;;;;;;31.63;21.42;;;24.30;99.90;;;;;;5032581;28;20021;-60
2021/10/04 09:55:37;;;;;;;36.90;25.80;;;24.60;99.90;;;;;;5038060;28;20099;-60
2021/10/04 09:58:15;;;;;;;35.83;27.15;;;24.40;99.90;;;;;;5052429;28;20032;-60
2021/10/04 10:00:53;;;;;;;37.08;25.83;;;24.80;99.90;;;;;;5041908;28;20045;-60
2021/10/04 10:03:22;;;;;;;40.50;27.40;;;24.80;99.90;;;;;;5047918;28;20025;-59
2021/10/04 10:05:58;;;;;;;37.78;27.10;;;25.00;99.90;;;;;;5041779;28;20036;-60
2021/10/04 10:08:26;;;;;;;35.70;26.42;;;25.00;99.90;;;;;;5032416;28;20470;-59
2021/10/04 10:10:55;;;;;;;40.08;28.02;;;24.90;99.90;;;;;;5039521;28;20400;-59
2021/10/04 10:13:22;;;;;;;42.05;30.05;;;25.00;99.90;;;;;;5049188;28;20143;-59
2021/10/04 10:16:01;;;;;;;36.97;26.63;;;24.90;99.90;;;;;;5029387;28;20021;-59
2021/10/04 10:18:38;;;;;;;33.67;25.52;;;24.80;99.90;;;;;;5051966;28;20033;-59
2021/10/04 10:21:07;;;;;;;36.92;26.73;;;25.00;99.90;;;;;;5048746;28;20418;-59
2021/10/04 10:23:50;;;;;;;36.20;26.83;;;24.70;99.90;;;;;;5051896;28;20116;-59
2021/10/04 10:26:29;;;;;;;32.17;24.33;;;24.80;99.90;;;;;;5049812;28;20064;-60
2021/10/04 10:29:13;;;;;;;30.95;24.45;;;25.10;99.90;;;;;;5047776;28;20103;-59
2021/10/04 10:31:48;;;;;;;35.85;23.83;;;25.00;99.90;;;;;;5049666;28;20029;-60
2021/10/04 10:34:33;;;;;;;35.33;26.05;;;25.00;99.90;;;;;;5055407;28;20029;-60
2021/10/04 10:37:18;;;;;;;31.33;23.63;;;25.00;99.90;;;;;;5050124;28;20490;-60
2021/10/04 10:39:47;;;;;;;34.42;21.73;;;24.80;99.90;;;;;;5055860;28;20021;-60
2021/10/04 10:42:32;;;;;;;28.90;22.05;;;24.70;99.90;;;;;;5034669;28;20030;-60
2021/10/04 10:44:58;;;;;;;38.10;25.45;;;24.60;99.90;;;;;;5040999;28;20041;-59
2021/10/04 10:47:41;;;;;;;41.85;27.80;;;24.50;99.90;;;;;;5015799;28;20080;-59
2021/10/04 10:50:17;;;;;;;38.80;29.20;;;24.40;99.90;;;;;;5017150;28;20105;-57
2021/10/04 10:53:00;;;;;;;45.42;30.08;;;24.30;99.90;;;;;;5035600;28;20371;-58
2021/10/04 10:55:33;;;;;;;45.97;29.67;;;24.10;99.90;;;;;;5033422;28;20108;-58
2021/10/04 10:58:09;;;;;;;49.78;31.52;;;24.00;99.90;;;;;;5040552;28;20128;-58
2021/10/04 11:01:00;;;;;;;47.53;31.15;;;24.20;99.90;;;;;;5046299;28;20037;-55
2021/10/04 11:03:27;;;;;;;43.90;32.30;;;24.20;99.90;;;;;;5053794;28;20094;-58
2021/10/04 11:06:03;;;;;;;51.58;31.95;;;24.10;99.90;;;;;;5053174;28;20116;-57
2021/10/04 11:08:28;;;;;;;45.53;31.23;;;24.40;99.90;;;;;;5055112;28;20063;-57
2021/10/04 11:10:56;;;;;;;44.17;29.88;;;24.40;99.90;;;;;;5046662;28;20068;-59
2021/10/04 11:13:36;;;;;;;47.83;32.42;;;24.40;99.90;;;;;;5035483;28;20113;-58
2021/10/04 11:16:04;;;;;;;42.95;29.27;;;24.40;99.90;;;;;;5041482;28;20013;-59
2021/10/04 11:18:38;;;;;;;47.53;31.38;;;24.40;99.90;;;;;;5055143;28;20099;-58
2021/10/04 11:21:06;;;;;;;50.22;31.35;;;24.40;99.90;;;;;;5045452;28;20060;-59
2021/10/04 11:23:32;;;;;;;45.05;31.55;;;24.40;99.90;;;;;;5034728;28;20481;-59
2021/10/04 11:25:58;;;;;;;51.33;31.98;;;24.40;99.90;;;;;;5033148;28;20029;-59
2021/10/04 11:28:30;;;;;;;52.80;32.63;;;24.50;99.90;;;;;;5034827;28;20116;-58
2021/10/04 11:31:03;;;;;;;45.72;30.45;;;24.50;99.90;;;;;;5031471;28;20032;-57
2021/10/04 11:33:33;;;;;;;45.33;28.70;;;24.40;99.90;;;;;;5053195;28;20032;-58
2021/10/04 11:36:01;;;;;;;48.10;29.63;;;24.40;99.90;;;;;;5045601;28;20029;-57
2021/10/04 11:38:29;;;;;;;43.53;28.45;;;24.40;99.90;;;;;;5033294;28;20037;-57
2021/10/04 11:40:57;;;;;;;43.75;30.02;;;24.40;99.90;;;;;;5039127;28;20052;-59
2021/10/04 11:43:24;;;;;;;41.47;28.40;;;24.20;99.90;;;;;;5054320;28;20044;-58
2021/10/04 11:45:51;;;;;;;45.70;29.48;;;24.40;99.90;;;;;;5050507;28;20056;-58
2021/10/04 11:48:32;;;;;;;47.08;29.67;;;24.30;99.90;;;;;;5054037;28;20029;-57
2021/10/04 11:50:58;;;;;;;45.25;29.85;;;24.40;99.90;;;;;;5050388;28;20068;-58
2021/10/04 11:53:26;;;;;;;42.35;29.30;;;24.40;99.90;;;;;;5034219;28;20079;-58
2021/10/04 11:56:00;;;;;;;46.17;31.10;;;24.60;99.90;;;;;;5037079;28;20060;-58
2021/10/04 11:58:25;;;;;;;57.58;33.17;;;24.60;99.90;;;;;;5054081;28;20028;-57
2021/10/04 12:00:51;;;;;;;55.72;33.85;;;24.60;99.90;;;;;;5042310;28;20052;-58
2021/10/04 12:03:31;;;;;;;53.95;35.13;;;24.50;99.90;;;;;;5054007;28;20048;-59
2021/10/04 12:06:00;;;;;;;54.53;35.88;;;24.60;99.90;;;;;;5040359;28;20060;-57
2021/10/04 12:08:35;;;;;;;53.35;33.45;;;24.70;99.90;;;;;;5053642;28;20029;-58
2021/10/04 12:11:04;;;;;;;58.15;35.75;;;24.40;99.90;;;;;;5050780;28;20025;-56
2021/10/04 12:13:34;;;;;;;56.88;36.03;;;24.50;99.90;;;;;;5053722;28;20067;-57
2021/10/04 12:16:13;;;;;;;50.75;34.60;;;24.60;99.90;;;;;;5035602;28;20037;-57
2021/10/04 12:18:44;;;;;;;52.20;34.40;;;24.70;99.90;;;;;;5033306;28;20494;-58
2021/10/04 12:21:24;;;;;;;51.78;33.20;;;24.70;99.90;;;;;;5028455;28;20030;-55
2021/10/04 12:24:20;;;;;;;54.75;34.80;;;24.70;99.90;;;;;;5044671;28;20051;-55
2021/10/04 12:27:02;;;;;;;53.75;33.45;;;24.80;99.90;;;;;;5033264;28;20033;-58
2021/10/04 12:29:44;;;;;;;44.05;32.03;;;24.90;99.90;;;;;;5051110;28;20025;-58
2021/10/04 12:32:24;;;;;;;48.63;32.75;;;25.00;99.90;;;;;;5038345;28;20427;-58